Airfield :
LOGIN :

Register | Disclaimer

   EN    FR    IT 

 










Legend :    VFR   Marginal VFR   IFR   Intensive IFR   Very Intensive IFR
Visi :
Ceiling :
>= 8 km
>= 3000ft
5 to 8 km
1000 to 3000 ft
1500m to 5 km
500 to 1000 ft
800 to 1500m
200 to 500 ft
< 800m
< 200 ft
Symbols :   Thunderstorms  Fog  Heavy snow  Heavy precipitations  Wind > 20 kt
SIGMETs :     Misc.  Thunderstorms  Icing  Turbulence  Mountain Waves  Volcanic Ashes







- Airport Elevation : 203 ft
- IATA code : XMJ
- Download approach charts


LFBM - Mont-De-Marsan

CURRENT METAR :
  • 231000Z AUTO 11003KT 050V150 CAVOK 19/11 Q0995 NOSIG

EXPIRED METARs :
  • 230930Z AUTO 11006KT 070V170 CAVOK 18/11 Q0994 NOSIG
  • 230900Z AUTO 12006KT 080V160 CAVOK 17/11 Q0994 NOSIG
  • 230830Z AUTO 10009KT 070V140 CAVOK 16/11 Q0994 NOSIG
  • 230800Z AUTO 11007KT 090V160 CAVOK 15/11 Q0994
  • 230730Z AUTO 10008KT CAVOK 15/11 Q0994 NOSIG

TAF TAF LFBM
Valid from the 23 at 09:00 until the 24 at 09:00 UTC


230800Z 2309/2409 09010KT CAVOK
TEMPO 2314/2323 VRB15G25KT 3000 SHRA BKN015 BKN030CB
BECMG 2323/2401 24010KT BKN010
BECMG 2403/2406 CAVOK
No reported NOTAMs for that airfield.



MET'MAP, your aeronautical weather chart ! - Copyright ORBIFLY December 2007 - Disclaimer

ORBIFLY MET'MAP TEAM :

Programming & Development : Alexandra Zaïnal
Concept & Development : Baudouin d'Aumeries
Co-Development & Prog : Marc-Olivier Méhu
Technical & hardware support : Manuel Goepfert

Contact : metmap@orbifly.com




SOURCES & CREDITS :

   NOAA